sensor_id;sensor_type;location;lat;lon;timestamp;P1;durP1;ratioP1;P2;durP2;ratioP2
3415;SDS011;1721;51.238;9.562;2022-08-03T00:01:32;7.25;;;2.83;;
3415;SDS011;1721;51.238;9.562;2022-08-03T00:03:59;9.05;;;3.22;;
3415;SDS011;1721;51.238;9.562;2022-08-03T00:06:24;5.00;;;2.80;;
3415;SDS011;1721;51.238;9.562;2022-08-03T00:08:50;6.10;;;3.00;;
3415;SDS011;1721;51.238;9.562;2022-08-03T00:11:16;6.38;;;2.90;;
3415;SDS011;1721;51.238;9.562;2022-08-03T00:13:41;5.20;;;2.90;;
3415;SDS011;1721;51.238;9.562;2022-08-03T00:16:07;5.60;;;3.13;;
3415;SDS011;1721;51.238;9.562;2022-08-03T00:18:34;5.32;;;3.15;;
3415;SDS011;1721;51.238;9.562;2022-08-03T00:21:01;6.25;;;2.90;;
3415;SDS011;1721;51.238;9.562;2022-08-03T00:23:28;6.38;;;3.50;;
3415;SDS011;1721;51.238;9.562;2022-08-03T00:25:53;7.33;;;3.00;;
3415;SDS011;1721;51.238;9.562;2022-08-03T00:28:19;6.70;;;2.70;;
3415;SDS011;1721;51.238;9.562;2022-08-03T00:30:45;6.15;;;3.53;;
3415;SDS011;1721;51.238;9.562;2022-08-03T00:33:10;8.77;;;3.00;;
3415;SDS011;1721;51.238;9.562;2022-08-03T00:35:36;7.82;;;3.35;;
3415;SDS011;1721;51.238;9.562;2022-08-03T00:38:01;9.95;;;3.50;;
3415;SDS011;1721;51.238;9.562;2022-08-03T00:40:27;8.52;;;3.40;;
3415;SDS011;1721;51.238;9.562;2022-08-03T00:45:20;6.40;;;3.20;;
3415;SDS011;1721;51.238;9.562;2022-08-03T00:47:47;5.40;;;3.13;;
3415;SDS011;1721;51.238;9.562;2022-08-03T00:50:13;7.32;;;2.90;;
3415;SDS011;1721;51.238;9.562;2022-08-03T00:52:39;6.50;;;3.10;;
3415;SDS011;1721;51.238;9.562;2022-08-03T00:55:05;6.78;;;3.17;;
3415;SDS011;1721;51.238;9.562;2022-08-03T00:57:31;5.50;;;2.95;;
3415;SDS011;1721;51.238;9.562;2022-08-03T00:59:57;6.95;;;3.00;;
3415;SDS011;1721;51.238;9.562;2022-08-03T01:02:27;4.93;;;2.90;;
3415;SDS011;1721;51.238;9.562;2022-08-03T01:04:52;6.40;;;3.10;;
3415;SDS011;1721;51.238;9.562;2022-08-03T01:13:04;5.30;;;2.58;;
3415;SDS011;1721;51.238;9.562;2022-08-03T01:20:56;7.50;;;2.90;;
3415;SDS011;1721;51.238;9.562;2022-08-03T01:23:34;7.05;;;3.15;;
3415;SDS011;1721;51.238;9.562;2022-08-03T01:29:28;6.30;;;2.90;;
3415;SDS011;1721;51.238;9.562;2022-08-03T01:32:15;7.03;;;3.20;;
3415;SDS011;1721;51.238;9.562;2022-08-03T01:34:50;7.60;;;3.15;;
3415;SDS011;1721;51.238;9.562;2022-08-03T01:37:24;6.90;;;3.20;;
3415;SDS011;1721;51.238;9.562;2022-08-03T01:39:55;6.40;;;2.90;;
3415;SDS011;1721;51.238;9.562;2022-08-03T01:42:21;10.30;;;3.20;;
3415;SDS011;1721;51.238;9.562;2022-08-03T01:44:49;6.55;;;3.10;;
3415;SDS011;1721;51.238;9.562;2022-08-03T01:47:18;5.70;;;3.20;;
3415;SDS011;1721;51.238;9.562;2022-08-03T01:49:44;9.00;;;3.20;;
3415;SDS011;1721;51.238;9.562;2022-08-03T01:52:11;4.82;;;2.83;;
3415;SDS011;1721;51.238;9.562;2022-08-03T01:54:42;10.95;;;3.10;;
3415;SDS011;1721;51.238;9.562;2022-08-03T01:57:09;5.45;;;3.20;;
3415;SDS011;1721;51.238;9.562;2022-08-03T01:59:36;6.05;;;3.25;;
3415;SDS011;1721;51.238;9.562;2022-08-03T02:02:04;7.80;;;3.40;;
3415;SDS011;1721;51.238;9.562;2022-08-03T02:04:30;7.22;;;3.50;;
3415;SDS011;1721;51.238;9.562;2022-08-03T02:06:56;5.82;;;2.90;;
3415;SDS011;1721;51.238;9.562;2022-08-03T02:09:23;5.72;;;3.00;;
3415;SDS011;1721;51.238;9.562;2022-08-03T02:11:51;7.57;;;3.60;;
3415;SDS011;1721;51.238;9.562;2022-08-03T02:14:18;7.07;;;3.08;;
3415;SDS011;1721;51.238;9.562;2022-08-03T02:16:45;5.50;;;3.20;;
3415;SDS011;1721;51.238;9.562;2022-08-03T02:19:11;5.90;;;2.80;;
3415;SDS011;1721;51.238;9.562;2022-08-03T02:21:38;5.88;;;3.38;;
3415;SDS011;1721;51.238;9.562;2022-08-03T02:24:05;6.88;;;3.30;;
3415;SDS011;1721;51.238;9.562;2022-08-03T02:26:32;6.77;;;3.17;;
3415;SDS011;1721;51.238;9.562;2022-08-03T02:29:02;7.28;;;3.10;;
3415;SDS011;1721;51.238;9.562;2022-08-03T02:31:33;7.47;;;3.33;;
3415;SDS011;1721;51.238;9.562;2022-08-03T02:34:03;7.05;;;3.33;;
3415;SDS011;1721;51.238;9.562;2022-08-03T02:36:34;7.60;;;3.53;;
3415;SDS011;1721;51.238;9.562;2022-08-03T02:39:03;5.30;;;3.00;;
3415;SDS011;1721;51.238;9.562;2022-08-03T02:41:31;6.40;;;3.20;;
3415;SDS011;1721;51.238;9.562;2022-08-03T02:44:02;6.32;;;3.22;;
3415;SDS011;1721;51.238;9.562;2022-08-03T02:46:36;9.77;;;3.65;;
3415;SDS011;1721;51.238;9.562;2022-08-03T02:49:05;7.30;;;3.50;;
3415;SDS011;1721;51.238;9.562;2022-08-03T02:51:32;7.60;;;3.35;;
3415;SDS011;1721;51.238;9.562;2022-08-03T02:54:01;5.20;;;3.10;;
3415;SDS011;1721;51.238;9.562;2022-08-03T02:56:27;5.65;;;3.20;;
3415;SDS011;1721;51.238;9.562;2022-08-03T02:58:54;6.50;;;3.50;;
3415;SDS011;1721;51.238;9.562;2022-08-03T03:01:21;9.02;;;3.35;;
3415;SDS011;1721;51.238;9.562;2022-08-03T03:03:49;9.80;;;3.10;;
3415;SDS011;1721;51.238;9.562;2022-08-03T03:06:17;6.97;;;3.70;;
3415;SDS011;1721;51.238;9.562;2022-08-03T03:08:45;9.15;;;3.80;;
3415;SDS011;1721;51.238;9.562;2022-08-03T03:11:12;6.30;;;3.35;;
3415;SDS011;1721;51.238;9.562;2022-08-03T03:13:40;10.13;;;3.60;;
3415;SDS011;1721;51.238;9.562;2022-08-03T03:16:08;10.50;;;3.35;;
3415;SDS011;1721;51.238;9.562;2022-08-03T03:18:35;6.65;;;3.03;;
3415;SDS011;1721;51.238;9.562;2022-08-03T03:21:03;9.25;;;3.70;;
3415;SDS011;1721;51.238;9.562;2022-08-03T03:23:29;8.20;;;3.40;;
3415;SDS011;1721;51.238;9.562;2022-08-03T03:25:55;5.88;;;3.35;;
3415;SDS011;1721;51.238;9.562;2022-08-03T03:28:23;7.65;;;3.60;;
3415;SDS011;1721;51.238;9.562;2022-08-03T03:30:49;7.10;;;3.70;;
3415;SDS011;1721;51.238;9.562;2022-08-03T03:33:15;6.00;;;3.13;;
3415;SDS011;1721;51.238;9.562;2022-08-03T03:35:41;6.38;;;3.30;;
3415;SDS011;1721;51.238;9.562;2022-08-03T03:38:09;7.15;;;3.45;;
3415;SDS011;1721;51.238;9.562;2022-08-03T03:40:36;9.60;;;3.47;;
3415;SDS011;1721;51.238;9.562;2022-08-03T03:43:05;7.05;;;3.60;;
3415;SDS011;1721;51.238;9.562;2022-08-03T03:45:33;7.80;;;3.60;;
3415;SDS011;1721;51.238;9.562;2022-08-03T03:47:59;6.00;;;3.40;;
3415;SDS011;1721;51.238;9.562;2022-08-03T03:50:26;9.63;;;3.60;;
3415;SDS011;1721;51.238;9.562;2022-08-03T03:52:52;6.95;;;3.38;;
3415;SDS011;1721;51.238;9.562;2022-08-03T03:55:18;10.70;;;3.60;;
3415;SDS011;1721;51.238;9.562;2022-08-03T03:57:43;5.63;;;3.20;;
3415;SDS011;1721;51.238;9.562;2022-08-03T04:00:10;7.13;;;3.30;;
3415;SDS011;1721;51.238;9.562;2022-08-03T04:02:38;5.60;;;3.35;;
3415;SDS011;1721;51.238;9.562;2022-08-03T04:05:03;5.93;;;3.50;;
3415;SDS011;1721;51.238;9.562;2022-08-03T04:08:02;7.25;;;3.70;;
3415;SDS011;1721;51.238;9.562;2022-08-03T04:13:22;6.28;;;3.53;;
3415;SDS011;1721;51.238;9.562;2022-08-03T04:16:01;6.80;;;3.40;;
3415;SDS011;1721;51.238;9.562;2022-08-03T04:18:28;7.50;;;3.63;;
3415;SDS011;1721;51.238;9.562;2022-08-03T04:20:57;5.82;;;3.15;;
3415;SDS011;1721;51.238;9.562;2022-08-03T04:23:25;6.85;;;3.20;;
3415;SDS011;1721;51.238;9.562;2022-08-03T04:25:52;7.90;;;3.70;;
3415;SDS011;1721;51.238;9.562;2022-08-03T04:28:19;6.82;;;3.30;;
3415;SDS011;1721;51.238;9.562;2022-08-03T04:30:47;7.05;;;3.42;;
3415;SDS011;1721;51.238;9.562;2022-08-03T04:33:15;8.52;;;3.70;;
3415;SDS011;1721;51.238;9.562;2022-08-03T04:35:43;7.40;;;3.72;;
3415;SDS011;1721;51.238;9.562;2022-08-03T04:38:12;10.88;;;3.53;;
3415;SDS011;1721;51.238;9.562;2022-08-03T04:40:40;7.75;;;3.95;;
3415;SDS011;1721;51.238;9.562;2022-08-03T04:43:08;6.25;;;3.80;;
3415;SDS011;1721;51.238;9.562;2022-08-03T04:45:35;7.00;;;3.25;;
3415;SDS011;1721;51.238;9.562;2022-08-03T04:48:01;6.97;;;3.50;;
3415;SDS011;1721;51.238;9.562;2022-08-03T04:50:27;7.50;;;3.60;;
3415;SDS011;1721;51.238;9.562;2022-08-03T04:52:54;8.27;;;3.70;;
3415;SDS011;1721;51.238;9.562;2022-08-03T04:55:26;7.75;;;3.80;;
3415;SDS011;1721;51.238;9.562;2022-08-03T04:57:53;7.25;;;3.88;;
3415;SDS011;1721;51.238;9.562;2022-08-03T05:00:19;6.40;;;3.43;;
3415;SDS011;1721;51.238;9.562;2022-08-03T05:02:45;7.35;;;3.50;;
3415;SDS011;1721;51.238;9.562;2022-08-03T05:05:10;8.53;;;3.40;;
3415;SDS011;1721;51.238;9.562;2022-08-03T05:07:36;6.43;;;3.20;;
3415;SDS011;1721;51.238;9.562;2022-08-03T05:10:05;8.37;;;3.67;;
3415;SDS011;1721;51.238;9.562;2022-08-03T05:12:32;7.30;;;3.70;;
3415;SDS011;1721;51.238;9.562;2022-08-03T05:14:58;7.60;;;3.50;;
3415;SDS011;1721;51.238;9.562;2022-08-03T05:17:24;7.93;;;3.30;;
3415;SDS011;1721;51.238;9.562;2022-08-03T05:19:50;6.80;;;3.30;;
3415;SDS011;1721;51.238;9.562;2022-08-03T05:22:15;7.27;;;3.70;;
3415;SDS011;1721;51.238;9.562;2022-08-03T05:24:41;6.70;;;3.30;;
3415;SDS011;1721;51.238;9.562;2022-08-03T05:27:06;7.00;;;3.10;;
3415;SDS011;1721;51.238;9.562;2022-08-03T05:29:32;7.70;;;3.00;;
3415;SDS011;1721;51.238;9.562;2022-08-03T05:31:57;9.03;;;3.20;;
3415;SDS011;1721;51.238;9.562;2022-08-03T05:34:23;7.28;;;3.00;;
3415;SDS011;1721;51.238;9.562;2022-08-03T05:36:48;6.15;;;2.70;;
3415;SDS011;1721;51.238;9.562;2022-08-03T05:39:14;5.75;;;2.67;;
3415;SDS011;1721;51.238;9.562;2022-08-03T05:41:39;7.53;;;2.88;;
3415;SDS011;1721;51.238;9.562;2022-08-03T05:44:05;8.88;;;2.78;;
3415;SDS011;1721;51.238;9.562;2022-08-03T05:46:30;6.40;;;2.80;;
3415;SDS011;1721;51.238;9.562;2022-08-03T05:48:56;4.57;;;2.70;;
3415;SDS011;1721;51.238;9.562;2022-08-03T05:51:21;6.97;;;2.85;;
3415;SDS011;1721;51.238;9.562;2022-08-03T05:53:47;5.10;;;2.80;;
3415;SDS011;1721;51.238;9.562;2022-08-03T05:56:13;5.13;;;2.72;;
3415;SDS011;1721;51.238;9.562;2022-08-03T05:58:39;6.37;;;3.10;;
3415;SDS011;1721;51.238;9.562;2022-08-03T06:01:04;5.60;;;3.10;;
3415;SDS011;1721;51.238;9.562;2022-08-03T06:03:30;5.63;;;3.00;;
3415;SDS011;1721;51.238;9.562;2022-08-03T06:05:55;6.80;;;2.90;;
3415;SDS011;1721;51.238;9.562;2022-08-03T06:08:22;6.50;;;3.40;;
3415;SDS011;1721;51.238;9.562;2022-08-03T06:10:48;7.60;;;3.20;;
3415;SDS011;1721;51.238;9.562;2022-08-03T06:13:14;5.38;;;2.60;;
3415;SDS011;1721;51.238;9.562;2022-08-03T06:15:39;7.72;;;2.80;;
3415;SDS011;1721;51.238;9.562;2022-08-03T06:18:05;5.07;;;2.92;;
3415;SDS011;1721;51.238;9.562;2022-08-03T06:20:32;5.65;;;2.78;;
3415;SDS011;1721;51.238;9.562;2022-08-03T06:22:57;5.45;;;2.85;;
3415;SDS011;1721;51.238;9.562;2022-08-03T06:25:24;4.85;;;2.90;;
3415;SDS011;1721;51.238;9.562;2022-08-03T06:27:50;5.60;;;2.65;;
3415;SDS011;1721;51.238;9.562;2022-08-03T06:30:15;5.30;;;2.83;;
3415;SDS011;1721;51.238;9.562;2022-08-03T06:32:42;10.68;;;2.60;;
3415;SDS011;1721;51.238;9.562;2022-08-03T06:35:08;5.22;;;2.90;;
3415;SDS011;1721;51.238;9.562;2022-08-03T06:38:08;5.00;;;2.83;;
3415;SDS011;1721;51.238;9.562;2022-08-03T06:40:26;7.30;;;2.45;;
3415;SDS011;1721;51.238;9.562;2022-08-03T06:42:56;6.03;;;2.40;;
3415;SDS011;1721;51.238;9.562;2022-08-03T06:45:23;4.93;;;2.25;;
3415;SDS011;1721;51.238;9.562;2022-08-03T06:47:58;6.30;;;2.38;;
3415;SDS011;1721;51.238;9.562;2022-08-03T06:50:25;4.70;;;2.35;;
3415;SDS011;1721;51.238;9.562;2022-08-03T06:52:50;5.70;;;2.15;;
3415;SDS011;1721;51.238;9.562;2022-08-03T06:55:16;7.10;;;1.90;;
3415;SDS011;1721;51.238;9.562;2022-08-03T06:57:41;5.23;;;2.07;;
3415;SDS011;1721;51.238;9.562;2022-08-03T07:00:07;4.67;;;2.07;;
3415;SDS011;1721;51.238;9.562;2022-08-03T07:02:33;3.78;;;2.00;;
3415;SDS011;1721;51.238;9.562;2022-08-03T07:04:59;4.30;;;1.80;;
3415;SDS011;1721;51.238;9.562;2022-08-03T07:07:24;2.90;;;1.50;;
3415;SDS011;1721;51.238;9.562;2022-08-03T07:09:50;3.33;;;1.70;;
3415;SDS011;1721;51.238;9.562;2022-08-03T07:12:15;6.47;;;1.60;;
3415;SDS011;1721;51.238;9.562;2022-08-03T07:14:41;3.10;;;1.50;;
3415;SDS011;1721;51.238;9.562;2022-08-03T07:17:06;3.10;;;1.40;;
3415;SDS011;1721;51.238;9.562;2022-08-03T07:19:32;7.30;;;1.52;;
3415;SDS011;1721;51.238;9.562;2022-08-03T07:21:57;2.90;;;1.40;;
3415;SDS011;1721;51.238;9.562;2022-08-03T07:24:23;3.23;;;1.40;;
3415;SDS011;1721;51.238;9.562;2022-08-03T07:26:49;3.20;;;1.37;;
3415;SDS011;1721;51.238;9.562;2022-08-03T07:29:14;3.20;;;1.48;;
3415;SDS011;1721;51.238;9.562;2022-08-03T07:31:40;3.00;;;1.50;;
3415;SDS011;1721;51.238;9.562;2022-08-03T07:34:06;4.63;;;1.50;;
3415;SDS011;1721;51.238;9.562;2022-08-03T07:36:31;4.20;;;1.30;;
3415;SDS011;1721;51.238;9.562;2022-08-03T07:38:57;3.03;;;1.52;;
3415;SDS011;1721;51.238;9.562;2022-08-03T07:41:22;2.58;;;1.38;;
3415;SDS011;1721;51.238;9.562;2022-08-03T07:43:48;3.10;;;1.50;;
3415;SDS011;1721;51.238;9.562;2022-08-03T07:46:14;3.07;;;1.30;;
3415;SDS011;1721;51.238;9.562;2022-08-03T07:48:39;3.03;;;1.43;;
3415;SDS011;1721;51.238;9.562;2022-08-03T07:51:05;3.10;;;1.50;;
3415;SDS011;1721;51.238;9.562;2022-08-03T07:53:31;4.20;;;1.60;;
3415;SDS011;1721;51.238;9.562;2022-08-03T07:55:56;3.30;;;1.50;;
3415;SDS011;1721;51.238;9.562;2022-08-03T07:58:22;3.07;;;1.60;;
3415;SDS011;1721;51.238;9.562;2022-08-03T08:00:48;4.70;;;1.60;;
3415;SDS011;1721;51.238;9.562;2022-08-03T08:03:17;5.72;;;1.50;;
3415;SDS011;1721;51.238;9.562;2022-08-03T08:05:42;3.20;;;1.58;;
3415;SDS011;1721;51.238;9.562;2022-08-03T08:08:08;7.55;;;1.52;;
3415;SDS011;1721;51.238;9.562;2022-08-03T08:10:34;2.90;;;1.40;;
3415;SDS011;1721;51.238;9.562;2022-08-03T08:13:00;3.33;;;1.50;;
3415;SDS011;1721;51.238;9.562;2022-08-03T08:15:27;5.18;;;1.70;;
3415;SDS011;1721;51.238;9.562;2022-08-03T08:17:54;4.10;;;1.40;;
3415;SDS011;1721;51.238;9.562;2022-08-03T08:20:23;4.00;;;1.50;;
3415;SDS011;1721;51.238;9.562;2022-08-03T08:22:56;3.08;;;1.40;;
3415;SDS011;1721;51.238;9.562;2022-08-03T08:25:26;8.73;;;1.70;;
3415;SDS011;1721;51.238;9.562;2022-08-03T08:27:51;4.43;;;1.70;;
3415;SDS011;1721;51.238;9.562;2022-08-03T08:30:18;3.78;;;1.65;;
3415;SDS011;1721;51.238;9.562;2022-08-03T08:32:45;6.25;;;1.70;;
3415;SDS011;1721;51.238;9.562;2022-08-03T08:35:11;9.30;;;1.80;;
3415;SDS011;1721;51.238;9.562;2022-08-03T08:37:36;6.43;;;1.63;;
3415;SDS011;1721;51.238;9.562;2022-08-03T08:40:03;5.70;;;1.70;;
3415;SDS011;1721;51.238;9.562;2022-08-03T08:42:30;3.40;;;1.60;;
3415;SDS011;1721;51.238;9.562;2022-08-03T08:44:56;5.53;;;1.70;;
3415;SDS011;1721;51.238;9.562;2022-08-03T08:47:24;5.18;;;1.60;;
3415;SDS011;1721;51.238;9.562;2022-08-03T08:49:53;3.72;;;1.90;;
3415;SDS011;1721;51.238;9.562;2022-08-03T08:52:26;5.72;;;2.00;;
3415;SDS011;1721;51.238;9.562;2022-08-03T08:54:57;5.20;;;1.80;;
3415;SDS011;1721;51.238;9.562;2022-08-03T08:57:26;5.60;;;1.77;;
3415;SDS011;1721;51.238;9.562;2022-08-03T08:59:54;6.40;;;1.70;;
3415;SDS011;1721;51.238;9.562;2022-08-03T09:02:21;5.55;;;2.00;;
3415;SDS011;1721;51.238;9.562;2022-08-03T09:04:48;6.20;;;2.00;;
3415;SDS011;1721;51.238;9.562;2022-08-03T09:07:14;3.25;;;1.77;;
3415;SDS011;1721;51.238;9.562;2022-08-03T09:09:41;9.43;;;1.92;;
3415;SDS011;1721;51.238;9.562;2022-08-03T09:12:07;3.47;;;1.60;;
3415;SDS011;1721;51.238;9.562;2022-08-03T09:14:33;4.20;;;1.90;;
3415;SDS011;1721;51.238;9.562;2022-08-03T09:16:59;5.47;;;1.73;;
3415;SDS011;1721;51.238;9.562;2022-08-03T09:19:27;5.60;;;2.10;;
3415;SDS011;1721;51.238;9.562;2022-08-03T09:22:35;5.38;;;2.15;;
3415;SDS011;1721;51.238;9.562;2022-08-03T09:24:55;4.10;;;1.80;;
3415;SDS011;1721;51.238;9.562;2022-08-03T09:27:22;5.17;;;2.27;;
3415;SDS011;1721;51.238;9.562;2022-08-03T09:29:52;5.63;;;1.90;;
3415;SDS011;1721;51.238;9.562;2022-08-03T09:32:19;3.42;;;1.80;;
3415;SDS011;1721;51.238;9.562;2022-08-03T09:34:50;3.80;;;1.70;;
3415;SDS011;1721;51.238;9.562;2022-08-03T09:37:17;4.43;;;1.90;;
3415;SDS011;1721;51.238;9.562;2022-08-03T09:39:45;4.50;;;1.90;;
3415;SDS011;1721;51.238;9.562;2022-08-03T09:42:13;4.82;;;1.90;;
3415;SDS011;1721;51.238;9.562;2022-08-03T09:44:46;6.30;;;1.90;;
3415;SDS011;1721;51.238;9.562;2022-08-03T09:47:15;4.22;;;2.00;;
3415;SDS011;1721;51.238;9.562;2022-08-03T09:49:56;4.50;;;2.03;;
3415;SDS011;1721;51.238;9.562;2022-08-03T09:52:29;3.90;;;1.90;;
3415;SDS011;1721;51.238;9.562;2022-08-03T09:54:56;4.93;;;1.80;;
3415;SDS011;1721;51.238;9.562;2022-08-03T09:57:24;4.60;;;1.80;;
3415;SDS011;1721;51.238;9.562;2022-08-03T09:59:51;2.90;;;1.60;;
3415;SDS011;1721;51.238;9.562;2022-08-03T10:02:22;5.47;;;2.00;;
3415;SDS011;1721;51.238;9.562;2022-08-03T10:04:49;5.60;;;1.83;;
3415;SDS011;1721;51.238;9.562;2022-08-03T10:07:17;5.90;;;2.00;;
3415;SDS011;1721;51.238;9.562;2022-08-03T10:09:54;4.45;;;1.90;;
3415;SDS011;1721;51.238;9.562;2022-08-03T10:12:24;4.10;;;1.90;;
3415;SDS011;1721;51.238;9.562;2022-08-03T10:14:50;4.18;;;1.85;;
3415;SDS011;1721;51.238;9.562;2022-08-03T10:17:16;8.90;;;2.30;;
3415;SDS011;1721;51.238;9.562;2022-08-03T10:19:42;6.43;;;2.10;;
3415;SDS011;1721;51.238;9.562;2022-08-03T10:22:21;4.72;;;2.03;;
3415;SDS011;1721;51.238;9.562;2022-08-03T10:27:26;3.40;;;1.60;;
3415;SDS011;1721;51.238;9.562;2022-08-03T10:30:00;3.40;;;1.70;;
3415;SDS011;1721;51.238;9.562;2022-08-03T10:32:42;3.30;;;1.50;;
3415;SDS011;1721;51.238;9.562;2022-08-03T10:35:11;8.10;;;2.00;;
3415;SDS011;1721;51.238;9.562;2022-08-03T10:37:42;6.50;;;1.80;;
3415;SDS011;1721;51.238;9.562;2022-08-03T10:40:13;4.10;;;2.13;;
3415;SDS011;1721;51.238;9.562;2022-08-03T10:42:43;10.50;;;1.73;;
3415;SDS011;1721;51.238;9.562;2022-08-03T10:45:14;3.50;;;1.60;;
3415;SDS011;1721;51.238;9.562;2022-08-03T10:47:44;4.53;;;1.80;;
3415;SDS011;1721;51.238;9.562;2022-08-03T10:50:11;5.15;;;1.80;;
3415;SDS011;1721;51.238;9.562;2022-08-03T10:55:56;5.50;;;1.70;;
3415;SDS011;1721;51.238;9.562;2022-08-03T11:01:01;3.75;;;1.80;;
3415;SDS011;1721;51.238;9.562;2022-08-03T11:06:18;5.18;;;1.70;;
3415;SDS011;1721;51.238;9.562;2022-08-03T11:08:46;5.70;;;1.90;;
3415;SDS011;1721;51.238;9.562;2022-08-03T11:13:55;3.42;;;1.95;;
3415;SDS011;1721;51.238;9.562;2022-08-03T11:16:32;4.10;;;1.90;;
3415;SDS011;1721;51.238;9.562;2022-08-03T11:19:01;4.80;;;1.80;;
3415;SDS011;1721;51.238;9.562;2022-08-03T11:35:08;3.78;;;1.70;;
3415;SDS011;1721;51.238;9.562;2022-08-03T11:37:35;8.90;;;1.90;;
3415;SDS011;1721;51.238;9.562;2022-08-03T11:46:00;6.05;;;2.05;;
3415;SDS011;1721;51.238;9.562;2022-08-03T11:48:27;5.65;;;2.00;;
3415;SDS011;1721;51.238;9.562;2022-08-03T11:50:53;7.75;;;1.88;;
3415;SDS011;1721;51.238;9.562;2022-08-03T11:53:19;4.90;;;1.80;;
3415;SDS011;1721;51.238;9.562;2022-08-03T11:55:45;6.00;;;2.00;;
3415;SDS011;1721;51.238;9.562;2022-08-03T11:58:17;4.68;;;1.88;;
3415;SDS011;1721;51.238;9.562;2022-08-03T12:00:44;3.55;;;1.60;;
3415;SDS011;1721;51.238;9.562;2022-08-03T12:03:11;4.10;;;1.80;;
3415;SDS011;1721;51.238;9.562;2022-08-03T12:08:18;4.60;;;1.90;;
3415;SDS011;1721;51.238;9.562;2022-08-03T12:10:57;3.60;;;1.80;;
3415;SDS011;1721;51.238;9.562;2022-08-03T12:13:24;5.10;;;1.80;;
3415;SDS011;1721;51.238;9.562;2022-08-03T12:15:51;3.53;;;2.00;;
3415;SDS011;1721;51.238;9.562;2022-08-03T12:18:21;5.85;;;1.70;;
3415;SDS011;1721;51.238;9.562;2022-08-03T12:20:49;6.55;;;1.80;;
3415;SDS011;1721;51.238;9.562;2022-08-03T12:23:15;4.03;;;1.80;;
3415;SDS011;1721;51.238;9.562;2022-08-03T12:25:42;4.00;;;1.70;;
3415;SDS011;1721;51.238;9.562;2022-08-03T12:28:13;4.20;;;1.67;;
3415;SDS011;1721;51.238;9.562;2022-08-03T12:30:44;10.60;;;2.00;;
3415;SDS011;1721;51.238;9.562;2022-08-03T12:33:12;4.55;;;1.80;;
3415;SDS011;1721;51.238;9.562;2022-08-03T12:36:02;4.90;;;1.70;;
3415;SDS011;1721;51.238;9.562;2022-08-03T12:38:36;3.55;;;1.55;;
3415;SDS011;1721;51.238;9.562;2022-08-03T12:43:33;3.30;;;2.00;;
3415;SDS011;1721;51.238;9.562;2022-08-03T12:48:35;5.80;;;1.70;;
3415;SDS011;1721;51.238;9.562;2022-08-03T12:51:07;4.90;;;2.10;;
3415;SDS011;1721;51.238;9.562;2022-08-03T12:53:33;3.75;;;1.80;;
3415;SDS011;1721;51.238;9.562;2022-08-03T12:56:03;4.50;;;1.90;;
3415;SDS011;1721;51.238;9.562;2022-08-03T12:58:30;4.68;;;1.90;;
3415;SDS011;1721;51.238;9.562;2022-08-03T13:00:57;2.85;;;1.65;;
3415;SDS011;1721;51.238;9.562;2022-08-03T13:03:23;6.10;;;2.07;;
3415;SDS011;1721;51.238;9.562;2022-08-03T13:05:49;5.13;;;2.20;;
3415;SDS011;1721;51.238;9.562;2022-08-03T13:08:18;4.10;;;1.70;;
3415;SDS011;1721;51.238;9.562;2022-08-03T13:10:44;5.00;;;1.80;;
3415;SDS011;1721;51.238;9.562;2022-08-03T13:13:10;7.63;;;1.70;;
3415;SDS011;1721;51.238;9.562;2022-08-03T13:15:36;3.47;;;1.60;;
3415;SDS011;1721;51.238;9.562;2022-08-03T13:18:01;3.20;;;1.40;;
3415;SDS011;1721;51.238;9.562;2022-08-03T13:20:27;3.50;;;1.63;;
3415;SDS011;1721;51.238;9.562;2022-08-03T13:22:52;5.07;;;1.40;;
3415;SDS011;1721;51.238;9.562;2022-08-03T13:25:18;5.37;;;1.60;;
3415;SDS011;1721;51.238;9.562;2022-08-03T13:27:44;3.00;;;1.45;;
3415;SDS011;1721;51.238;9.562;2022-08-03T13:30:10;3.40;;;1.50;;
3415;SDS011;1721;51.238;9.562;2022-08-03T13:32:36;3.73;;;1.70;;
3415;SDS011;1721;51.238;9.562;2022-08-03T13:35:02;7.40;;;1.80;;
3415;SDS011;1721;51.238;9.562;2022-08-03T13:37:28;4.20;;;1.70;;
3415;SDS011;1721;51.238;9.562;2022-08-03T13:39:56;4.22;;;1.42;;
3415;SDS011;1721;51.238;9.562;2022-08-03T13:42:22;4.70;;;1.60;;
3415;SDS011;1721;51.238;9.562;2022-08-03T13:44:48;3.00;;;1.42;;
3415;SDS011;1721;51.238;9.562;2022-08-03T13:47:13;3.63;;;1.50;;
3415;SDS011;1721;51.238;9.562;2022-08-03T13:49:39;4.60;;;1.50;;
3415;SDS011;1721;51.238;9.562;2022-08-03T13:52:04;6.50;;;1.50;;
3415;SDS011;1721;51.238;9.562;2022-08-03T13:54:30;9.13;;;1.63;;
3415;SDS011;1721;51.238;9.562;2022-08-03T13:56:57;3.97;;;1.70;;
3415;SDS011;1721;51.238;9.562;2022-08-03T13:59:23;2.90;;;1.50;;
3415;SDS011;1721;51.238;9.562;2022-08-03T14:01:50;3.47;;;1.60;;
3415;SDS011;1721;51.238;9.562;2022-08-03T14:04:17;4.30;;;1.50;;
3415;SDS011;1721;51.238;9.562;2022-08-03T14:06:43;3.60;;;1.70;;
3415;SDS011;1721;51.238;9.562;2022-08-03T14:09:10;4.40;;;1.60;;
3415;SDS011;1721;51.238;9.562;2022-08-03T14:11:37;3.10;;;1.50;;
3415;SDS011;1721;51.238;9.562;2022-08-03T14:14:03;3.10;;;1.77;;
3415;SDS011;1721;51.238;9.562;2022-08-03T14:16:28;2.80;;;1.40;;
3415;SDS011;1721;51.238;9.562;2022-08-03T14:18:54;3.60;;;1.60;;
3415;SDS011;1721;51.238;9.562;2022-08-03T14:21:19;4.27;;;1.50;;
3415;SDS011;1721;51.238;9.562;2022-08-03T14:23:45;8.13;;;1.60;;
3415;SDS011;1721;51.238;9.562;2022-08-03T14:26:10;2.90;;;1.65;;
3415;SDS011;1721;51.238;9.562;2022-08-03T14:28:38;5.38;;;1.80;;
3415;SDS011;1721;51.238;9.562;2022-08-03T14:31:04;3.17;;;1.42;;
3415;SDS011;1721;51.238;9.562;2022-08-03T14:33:29;3.90;;;1.50;;
3415;SDS011;1721;51.238;9.562;2022-08-03T14:35:55;4.37;;;1.67;;
3415;SDS011;1721;51.238;9.562;2022-08-03T14:38:21;3.20;;;1.50;;
3415;SDS011;1721;51.238;9.562;2022-08-03T14:40:47;3.05;;;1.40;;
3415;SDS011;1721;51.238;9.562;2022-08-03T14:43:13;5.80;;;1.87;;
3415;SDS011;1721;51.238;9.562;2022-08-03T14:45:42;3.30;;;1.52;;
3415;SDS011;1721;51.238;9.562;2022-08-03T14:48:07;4.33;;;1.67;;
3415;SDS011;1721;51.238;9.562;2022-08-03T14:50:33;7.40;;;1.60;;
3415;SDS011;1721;51.238;9.562;2022-08-03T14:52:58;4.80;;;1.57;;
3415;SDS011;1721;51.238;9.562;2022-08-03T14:55:24;6.27;;;1.60;;
3415;SDS011;1721;51.238;9.562;2022-08-03T14:57:50;3.50;;;1.60;;
3415;SDS011;1721;51.238;9.562;2022-08-03T15:00:15;4.70;;;1.97;;
3415;SDS011;1721;51.238;9.562;2022-08-03T15:02:41;3.60;;;1.65;;
3415;SDS011;1721;51.238;9.562;2022-08-03T15:05:07;3.80;;;1.50;;
3415;SDS011;1721;51.238;9.562;2022-08-03T15:07:34;4.60;;;1.33;;
3415;SDS011;1721;51.238;9.562;2022-08-03T15:10:00;3.20;;;1.70;;
3415;SDS011;1721;51.238;9.562;2022-08-03T15:12:25;4.63;;;1.50;;
3415;SDS011;1721;51.238;9.562;2022-08-03T15:14:51;4.50;;;1.80;;
3415;SDS011;1721;51.238;9.562;2022-08-03T15:17:16;5.70;;;1.90;;
3415;SDS011;1721;51.238;9.562;2022-08-03T15:19:42;7.50;;;1.60;;
3415;SDS011;1721;51.238;9.562;2022-08-03T15:22:08;4.90;;;1.40;;
3415;SDS011;1721;51.238;9.562;2022-08-03T15:24:33;4.97;;;1.35;;
3415;SDS011;1721;51.238;9.562;2022-08-03T15:26:59;5.35;;;1.60;;
3415;SDS011;1721;51.238;9.562;2022-08-03T15:29:24;3.00;;;1.50;;
3415;SDS011;1721;51.238;9.562;2022-08-03T15:31:50;3.63;;;1.65;;
3415;SDS011;1721;51.238;9.562;2022-08-03T15:34:15;3.10;;;1.43;;
3415;SDS011;1721;51.238;9.562;2022-08-03T15:36:42;3.78;;;1.60;;
3415;SDS011;1721;51.238;9.562;2022-08-03T15:39:08;5.40;;;1.80;;
3415;SDS011;1721;51.238;9.562;2022-08-03T15:41:33;4.20;;;1.70;;
3415;SDS011;1721;51.238;9.562;2022-08-03T15:43:59;9.67;;;1.50;;
3415;SDS011;1721;51.238;9.562;2022-08-03T15:46:26;3.60;;;1.50;;
3415;SDS011;1721;51.238;9.562;2022-08-03T15:48:52;4.50;;;1.50;;
3415;SDS011;1721;51.238;9.562;2022-08-03T15:51:17;4.10;;;1.50;;
3415;SDS011;1721;51.238;9.562;2022-08-03T15:53:43;4.07;;;1.60;;
3415;SDS011;1721;51.238;9.562;2022-08-03T15:56:08;3.53;;;1.50;;
3415;SDS011;1721;51.238;9.562;2022-08-03T15:58:35;6.20;;;1.60;;
3415;SDS011;1721;51.238;9.562;2022-08-03T16:01:02;6.13;;;1.53;;
3415;SDS011;1721;51.238;9.562;2022-08-03T16:03:28;3.50;;;1.80;;
3415;SDS011;1721;51.238;9.562;2022-08-03T16:06:03;6.00;;;1.52;;
3415;SDS011;1721;51.238;9.562;2022-08-03T16:08:31;4.80;;;1.60;;
3415;SDS011;1721;51.238;9.562;2022-08-03T16:10:57;4.50;;;1.50;;
3415;SDS011;1721;51.238;9.562;2022-08-03T16:13:23;3.50;;;1.50;;
3415;SDS011;1721;51.238;9.562;2022-08-03T16:15:50;3.28;;;1.77;;
3415;SDS011;1721;51.238;9.562;2022-08-03T16:18:16;5.10;;;1.60;;